Time;durP1;ratioP1;P1;durP2;ratioP2;P2;SDS_P1;SDS_P2;PMS_P1;PMS_P2;Temp;Humidity;BMP_temperature;BMP_pressure;BME280_temperature;BME280_humidity;BME280_pressure;Samples;Min_cycle;Max_cycle;Signal;HPM_P1;HPM_P2
2021/12/05 00:23:19;;;;;;;1.53;1.17;;;3.50;99.90;;;;;;6193437;23;20816;-87
2021/12/05 00:25:50;;;;;;;1.67;1.10;;;3.60;99.90;;;;;;6166096;23;20399;-87
2021/12/05 00:33:45;;;;;;;3.40;1.37;;;3.60;99.90;;;;;;6193577;23;20426;-87
2021/12/05 00:50:18;;;;;;;1.00;0.90;;;3.60;99.90;;;;;;6188337;23;20425;-87
2021/12/05 01:08:38;;;;;;;2.60;1.23;;;3.60;99.90;;;;;;6198014;23;20450;-87
2021/12/05 01:16:18;;;;;;;2.07;1.50;;;3.60;99.90;;;;;;6195778;23;20773;-86
2021/12/05 01:18:45;;;;;;;1.17;0.87;;;3.60;99.90;;;;;;6197441;23;20391;-87
2021/12/05 01:21:19;;;;;;;1.23;1.13;;;3.60;99.90;;;;;;6171023;23;20163;-86
2021/12/05 01:23:59;;;;;;;1.00;1.00;;;3.60;99.90;;;;;;6169275;23;20660;-87
2021/12/05 01:26:37;;;;;;;1.60;1.00;;;3.60;99.90;;;;;;6171506;23;21134;-87
2021/12/05 01:29:31;;;;;;;2.00;1.00;;;3.70;99.90;;;;;;6170095;23;20437;-86
2021/12/05 01:32:11;;;;;;;0.90;0.90;;;3.70;99.90;;;;;;6196052;23;20721;-87
2021/12/05 01:34:47;;;;;;;2.50;1.23;;;3.80;99.90;;;;;;6169419;23;20416;-88
2021/12/05 02:09:20;;;;;;;2.80;1.00;;;3.70;99.90;;;;;;6196311;23;20400;-86
2021/12/05 02:12:14;;;;;;;3.23;1.40;;;3.70;99.90;;;;;;6170066;23;20439;-87
2021/12/05 02:41:41;;;;;;;2.73;1.20;;;3.60;99.90;;;;;;6196907;23;20737;-88
2021/12/05 02:46:48;;;;;;;2.37;1.40;;;3.60;99.90;;;;;;6197328;23;20449;-87
2021/12/05 02:49:16;;;;;;;3.30;1.43;;;3.60;99.90;;;;;;6171302;23;20750;-87
2021/12/05 02:51:50;;;;;;;4.00;1.50;;;3.50;99.90;;;;;;6169886;23;20919;-87
2021/12/05 02:54:17;;;;;;;1.97;1.20;;;3.60;99.90;;;;;;6170691;23;20824;-88
2021/12/05 02:56:48;;;;;;;1.60;1.50;;;3.60;99.90;;;;;;6169711;23;20417;-87
2021/12/05 02:59:31;;;;;;;4.47;1.00;;;3.70;99.90;;;;;;6167193;23;20468;-87
2021/12/05 03:02:08;;;;;;;3.47;1.23;;;3.70;99.90;;;;;;6168130;23;20391;-86
2021/12/05 03:04:37;;;;;;;3.13;1.30;;;3.60;99.90;;;;;;6166636;23;20974;-86
2021/12/05 03:07:08;;;;;;;2.00;1.13;;;3.60;99.90;;;;;;6165907;23;20443;-86
2021/12/05 03:09:35;;;;;;;3.27;1.20;;;3.50;99.90;;;;;;6167555;23;20399;-86
2021/12/05 03:12:03;;;;;;;2.20;1.53;;;3.60;99.90;;;;;;6167192;23;20443;-86
2021/12/05 03:14:29;;;;;;;3.30;1.47;;;3.60;99.90;;;;;;6165972;23;20387;-86
2021/12/05 03:16:55;;;;;;;2.63;1.10;;;3.60;99.90;;;;;;6166158;23;20793;-86
2021/12/05 03:19:21;;;;;;;4.13;1.40;;;3.60;99.90;;;;;;6167474;23;20429;-86
2021/12/05 03:21:54;;;;;;;2.27;1.03;;;3.60;99.90;;;;;;6167287;23;20410;-85
2021/12/05 03:24:22;;;;;;;3.43;1.33;;;3.60;99.90;;;;;;6167612;23;20426;-86
2021/12/05 03:26:51;;;;;;;1.17;0.90;;;3.60;99.90;;;;;;6169028;23;21034;-85
2021/12/05 03:29:18;;;;;;;1.60;1.50;;;3.60;99.90;;;;;;6167162;23;21153;-86
2021/12/05 03:31:45;;;;;;;2.80;1.17;;;3.60;99.90;;;;;;6167882;23;20394;-87
2021/12/05 03:34:14;;;;;;;1.50;1.10;;;3.70;99.90;;;;;;6166737;23;20406;-87
2021/12/05 03:36:43;;;;;;;3.03;1.30;;;3.60;99.90;;;;;;6169478;23;20391;-87
2021/12/05 03:39:10;;;;;;;1.90;1.00;;;3.50;99.90;;;;;;6168755;23;20399;-87
2021/12/05 03:41:37;;;;;;;1.50;1.00;;;3.50;99.90;;;;;;6168691;23;20872;-88
2021/12/05 03:44:05;;;;;;;1.83;1.33;;;3.50;99.90;;;;;;6168192;23;20394;-86
2021/12/05 03:46:31;;;;;;;1.90;1.30;;;3.50;99.90;;;;;;6168156;23;20430;-86
2021/12/05 03:49:01;;;;;;;2.90;1.20;;;3.50;99.90;;;;;;6167811;23;20394;-86
2021/12/05 03:51:34;;;;;;;7.80;1.03;;;3.50;99.90;;;;;;6168449;23;20387;-86
2021/12/05 03:54:01;;;;;;;2.10;1.53;;;3.50;99.90;;;;;;6166643;23;20407;-86
2021/12/05 03:56:27;;;;;;;5.97;2.20;;;3.50;99.90;;;;;;6167977;23;20577;-86
2021/12/05 03:58:54;;;;;;;4.20;1.40;;;3.50;99.90;;;;;;6167588;23;20482;-86
2021/12/05 04:01:20;;;;;;;2.70;1.10;;;3.50;99.90;;;;;;6168842;23;20497;-86
2021/12/05 04:03:48;;;;;;;2.70;0.93;;;3.60;99.90;;;;;;6168412;23;20387;-86
2021/12/05 04:06:17;;;;;;;1.37;1.03;;;3.50;99.90;;;;;;6167782;23;20394;-86
2021/12/05 04:08:43;;;;;;;2.03;1.07;;;3.50;99.90;;;;;;6168694;23;20413;-87
2021/12/05 04:11:40;;;;;;;1.30;0.93;;;3.50;99.90;;;;;;6168645;23;20453;-86
2021/12/05 04:14:08;;;;;;;1.53;1.03;;;3.50;99.90;;;;;;6193990;23;20481;-87
2021/12/05 04:16:35;;;;;;;3.70;1.40;;;3.50;99.90;;;;;;6169223;23;20958;-87
2021/12/05 04:19:02;;;;;;;5.30;1.70;;;3.50;99.90;;;;;;6168646;23;20747;-87
2021/12/05 04:21:29;;;;;;;2.23;1.07;;;3.50;99.90;;;;;;6168517;23;20405;-87
2021/12/05 04:23:57;;;;;;;2.43;0.70;;;3.50;99.90;;;;;;6163043;23;20407;-87
2021/12/05 04:26:24;;;;;;;3.23;1.07;;;3.50;99.90;;;;;;6167010;23;20394;-87
2021/12/05 04:28:51;;;;;;;1.60;0.97;;;3.50;99.90;;;;;;6166912;23;20425;-87
2021/12/05 04:31:20;;;;;;;2.60;1.30;;;3.50;99.90;;;;;;6167368;23;20433;-87
2021/12/05 04:33:46;;;;;;;3.53;1.10;;;3.40;99.90;;;;;;6167519;23;20923;-87
2021/12/05 04:36:11;;;;;;;3.03;1.30;;;3.50;99.90;;;;;;6166820;23;20398;-87
2021/12/05 04:38:37;;;;;;;4.03;1.10;;;3.50;99.90;;;;;;6166921;23;20168;-87
2021/12/05 04:41:03;;;;;;;1.43;0.90;;;3.40;99.90;;;;;;6167675;23;20236;-86
2021/12/05 04:43:36;;;;;;;2.37;1.00;;;3.40;99.90;;;;;;6166758;23;20520;-86
2021/12/05 04:46:05;;;;;;;2.40;1.17;;;3.50;99.90;;;;;;6166118;23;20402;-86
2021/12/05 04:48:31;;;;;;;2.57;0.90;;;3.50;99.90;;;;;;6167163;23;20936;-86
2021/12/05 04:50:57;;;;;;;1.47;0.80;;;3.50;99.90;;;;;;6166289;23;20398;-87
2021/12/05 04:53:26;;;;;;;2.63;1.23;;;3.50;99.90;;;;;;6167483;23;20167;-86
2021/12/05 04:55:52;;;;;;;3.73;1.27;;;3.50;99.90;;;;;;6165499;23;20169;-86
2021/12/05 04:58:17;;;;;;;2.13;0.80;;;3.50;99.90;;;;;;6166441;23;20890;-87
2021/12/05 05:00:46;;;;;;;3.23;1.00;;;3.50;99.90;;;;;;6165952;23;20951;-87
2021/12/05 05:03:16;;;;;;;6.20;1.70;;;3.50;99.90;;;;;;6193154;23;20159;-87
2021/12/05 05:06:00;;;;;;;1.10;1.00;;;3.50;99.90;;;;;;6167980;23;20400;-87
2021/12/05 05:08:27;;;;;;;5.90;1.10;;;3.60;99.90;;;;;;6167487;23;20460;-86
2021/12/05 05:10:52;;;;;;;3.03;0.93;;;3.60;99.90;;;;;;6167448;23;20944;-86
2021/12/05 05:13:18;;;;;;;2.60;1.10;;;3.60;99.90;;;;;;6166818;23;20413;-86
2021/12/05 05:15:44;;;;;;;4.63;1.17;;;3.60;99.90;;;;;;6165756;23;20204;-87
2021/12/05 05:18:12;;;;;;;4.83;0.90;;;3.60;99.90;;;;;;6164458;23;20430;-86
2021/12/05 05:24:02;;;;;;;3.23;1.03;;;3.60;99.90;;;;;;6193501;23;20473;-86
2021/12/05 05:29:11;;;;;;;4.13;0.93;;;3.50;99.90;;;;;;6192564;23;20465;-86
2021/12/05 05:45:44;;;;;;;1.30;0.80;;;3.20;99.90;;;;;;6149750;23;20387;-85
2021/12/05 05:50:37;;;;;;;3.50;1.10;;;3.20;99.90;;;;;;6193250;23;20438;-86
2021/12/05 05:53:04;;;;;;;1.60;0.80;;;3.10;99.90;;;;;;6166360;23;20414;-87
2021/12/05 05:55:30;;;;;;;5.60;0.80;;;3.00;99.90;;;;;;6166204;23;20396;-87
2021/12/05 05:58:07;;;;;;;0.73;0.73;;;2.90;99.90;;;;;;6168063;23;20409;-87
2021/12/05 06:00:41;;;;;;;1.97;1.00;;;2.80;99.90;;;;;;6168304;23;20482;-87
2021/12/05 06:03:21;;;;;;;1.17;0.70;;;2.80;99.90;;;;;;6165792;23;20786;-87
2021/12/05 06:05:55;;;;;;;2.07;1.00;;;2.80;99.90;;;;;;6166323;23;20746;-87
2021/12/05 06:08:24;;;;;;;2.60;1.23;;;2.60;99.90;;;;;;6165060;23;20785;-87
2021/12/05 06:10:51;;;;;;;5.73;1.20;;;2.60;99.90;;;;;;6165548;23;20863;-86
2021/12/05 06:13:18;;;;;;;2.63;0.77;;;2.60;99.90;;;;;;6165781;23;20434;-86
2021/12/05 06:15:48;;;;;;;2.33;1.10;;;2.60;99.90;;;;;;6166491;23;20475;-86
2021/12/05 06:18:14;;;;;;;2.03;0.60;;;2.60;99.90;;;;;;6165635;23;20395;-86
2021/12/05 06:20:41;;;;;;;1.30;0.90;;;2.60;99.90;;;;;;6165105;23;20409;-86
2021/12/05 06:23:07;;;;;;;1.20;0.97;;;2.60;99.90;;;;;;6164320;23;20395;-87
2021/12/05 06:25:36;;;;;;;1.87;0.80;;;2.60;99.90;;;;;;6164682;23;20788;-86
2021/12/05 06:28:07;;;;;;;4.10;1.10;;;2.60;99.90;;;;;;6166973;23;20794;-86
2021/12/05 06:39:19;;;;;;;2.23;1.47;;;2.40;99.90;;;;;;6193267;23;20398;-87
2021/12/05 06:42:02;;;;;;;2.77;1.00;;;2.40;99.90;;;;;;6191430;23;20390;-87
2021/12/05 06:47:32;;;;;;;5.30;2.00;;;2.40;99.90;;;;;;6142073;23;20505;-87
2021/12/05 06:49:59;;;;;;;2.13;1.37;;;2.40;99.90;;;;;;6166558;23;20485;-87
2021/12/05 06:52:25;;;;;;;4.20;1.50;;;2.40;99.90;;;;;;6165487;23;20402;-87
2021/12/05 06:54:59;;;;;;;4.43;1.83;;;2.40;99.90;;;;;;6193263;23;20465;-87
2021/12/05 06:57:24;;;;;;;1.90;1.40;;;2.40;99.90;;;;;;6165663;23;21321;-88
2021/12/05 06:59:50;;;;;;;2.07;1.70;;;2.50;99.90;;;;;;6164258;23;20393;-87
2021/12/05 07:02:26;;;;;;;3.67;1.80;;;2.50;99.90;;;;;;6163110;23;20171;-88
2021/12/05 07:05:46;;;;;;;5.03;1.50;;;2.50;99.90;;;;;;6166660;23;20404;-88
2021/12/05 07:07:43;;;;;;;5.30;2.70;;;2.60;99.90;;;;;;6170937;23;20434;-87
2021/12/05 07:10:11;;;;;;;6.30;1.90;;;2.70;99.90;;;;;;6164373;23;20835;-85
2021/12/05 07:26:10;;;;;;;8.53;3.10;;;2.80;99.90;;;;;;6192541;23;20410;-88
2021/12/05 07:42:25;;;;;;;9.40;6.63;;;2.70;99.90;;;;;;6193614;23;20441;-87
2021/12/05 07:44:56;;;;;;;5.00;3.70;;;2.60;99.90;;;;;;6167238;23;20864;-87
2021/12/05 07:47:29;;;;;;;5.93;4.60;;;2.50;99.90;;;;;;6165023;23;20446;-92
2021/12/05 07:50:21;;;;;;;4.80;4.30;;;2.50;99.90;;;;;;6166960;23;20395;-93
2021/12/05 07:52:52;;;;;;;4.10;3.13;;;2.50;99.90;;;;;;6191070;23;20431;-92
2021/12/05 07:55:43;;;;;;;3.63;2.47;;;2.50;99.90;;;;;;6167543;23;20417;-93
2021/12/05 08:01:01;;;;;;;3.20;1.70;;;2.60;99.90;;;;;;6196657;23;20944;-90
2021/12/05 08:14:39;;;;;;;2.23;1.40;;;2.60;99.90;;;;;;6193244;23;20445;-91
2021/12/05 08:17:14;;;;;;;4.20;3.50;;;2.90;99.90;;;;;;6167400;23;20398;-93
2021/12/05 08:19:40;;;;;;;3.60;2.97;;;3.10;99.90;;;;;;6165316;23;20398;-92
2021/12/05 08:22:06;;;;;;;2.93;2.20;;;3.20;99.90;;;;;;6192854;23;20392;-93
2021/12/05 08:24:33;;;;;;;4.27;2.00;;;3.30;99.90;;;;;;6165708;23;20414;-92
2021/12/05 08:27:01;;;;;;;5.77;4.07;;;3.60;99.90;;;;;;6166769;23;20442;-94
2021/12/05 08:29:37;;;;;;;2.50;1.73;;;3.90;99.90;;;;;;6169059;23;20397;-94
2021/12/05 08:34:51;;;;;;;3.47;2.17;;;4.40;99.90;;;;;;6194565;23;20551;-91
2021/12/05 09:24:03;;;;;;;1.30;1.20;;;5.30;99.90;;;;;;6193028;23;20398;-88
2021/12/05 10:12:19;;;;;;;1.40;1.10;;;9.90;99.90;;;;;;6195730;23;20421;-89
2021/12/05 10:37:21;;;;;;;1.20;1.10;;;12.60;91.90;;;;;;6194613;23;20403;-86
2021/12/05 10:40:16;;;;;;;1.60;1.50;;;13.10;92.00;;;;;;6167921;23;20765;-86
2021/12/05 10:42:54;;;;;;;2.03;1.40;;;13.40;90.40;;;;;;6166474;23;20411;-88
2021/12/05 10:45:19;;;;;;;2.50;1.40;;;13.20;90.20;;;;;;6163917;23;20398;-87
2021/12/05 10:47:51;;;;;;;3.40;1.40;;;13.20;89.10;;;;;;6165283;23;20449;-88
2021/12/05 10:50:44;;;;;;;2.23;1.40;;;13.40;90.50;;;;;;6166168;23;20242;-88
2021/12/05 10:53:33;;;;;;;1.33;1.23;;;14.00;88.40;;;;;;6165471;23;20403;-89
2021/12/05 10:56:17;;;;;;;1.73;1.40;;;14.40;87.70;;;;;;6167951;23;20983;-90
2021/12/05 10:58:57;;;;;;;1.33;1.07;;;14.80;85.20;;;;;;6168120;23;20408;-89
2021/12/05 11:01:38;;;;;;;1.00;0.80;;;15.10;82.60;;;;;;6166852;23;20398;-89
2021/12/05 11:04:06;;;;;;;2.20;1.60;;;14.60;83.30;;;;;;6167120;23;20754;-89
2021/12/05 11:06:39;;;;;;;1.97;1.80;;;14.40;83.30;;;;;;6167811;23;20398;-89
2021/12/05 11:09:15;;;;;;;3.23;2.07;;;14.40;84.70;;;;;;6165017;23;20407;-89
2021/12/05 11:11:44;;;;;;;2.00;1.90;;;15.20;82.40;;;;;;6166664;23;20406;-89
2021/12/05 11:14:21;;;;;;;1.37;1.27;;;16.10;78.20;;;;;;6170650;23;20422;-88
2021/12/05 11:17:03;;;;;;;2.60;2.37;;;15.50;77.30;;;;;;6168606;23;21273;-89
2021/12/05 11:19:31;;;;;;;1.40;1.03;;;15.30;73.80;;;;;;6165997;23;21172;-89
2021/12/05 11:22:25;;;;;;;4.03;1.70;;;15.30;77.90;;;;;;6167833;23;20407;-88
2021/12/05 11:24:58;;;;;;;1.73;1.27;;;15.20;76.80;;;;;;6159409;23;20458;-88
2021/12/05 11:30:14;;;;;;;1.10;1.00;;;16.90;74.80;;;;;;6188832;23;20783;-90
2021/12/05 11:32:47;;;;;;;1.27;1.17;;;16.10;71.60;;;;;;6163814;23;20414;-89
2021/12/05 11:35:31;;;;;;;0.70;0.70;;;16.30;73.40;;;;;;6163875;23;20414;-90
2021/12/05 11:38:09;;;;;;;1.57;1.20;;;16.20;72.50;;;;;;6165991;23;20394;-91
2021/12/05 11:40:58;;;;;;;1.23;1.00;;;16.20;74.30;;;;;;6192612;23;20481;-90
2021/12/05 11:43:35;;;;;;;2.03;0.87;;;15.20;70.50;;;;;;6166512;23;20418;-90
2021/12/05 11:46:23;;;;;;;0.90;0.90;;;14.60;73.80;;;;;;6166652;23;20726;-89
2021/12/05 11:48:57;;;;;;;2.00;0.80;;;14.80;76.50;;;;;;6167078;23;20845;-90
2021/12/05 11:51:54;;;;;;;0.93;0.90;;;14.20;75.00;;;;;;6166756;23;20732;-89
2021/12/05 11:54:26;;;;;;;1.13;1.10;;;11.70;81.10;;;;;;6166484;23;20888;-89
2021/12/05 11:56:58;;;;;;;2.70;1.10;;;9.70;90.00;;;;;;6167510;23;20568;-90
2021/12/05 11:59:52;;;;;;;0.70;0.70;;;9.20;92.40;;;;;;6168123;23;20399;-89
2021/12/05 12:02:35;;;;;;;1.77;0.80;;;8.80;93.80;;;;;;6169396;23;20431;-92
2021/12/05 12:05:24;;;;;;;0.80;0.80;;;8.60;94.90;;;;;;6168021;23;20722;-89
2021/12/05 12:07:53;;;;;;;1.23;0.63;;;8.30;95.20;;;;;;6168071;23;20442;-89
2021/12/05 12:10:26;;;;;;;3.87;0.93;;;7.90;96.90;;;;;;6167590;23;20429;-90
2021/12/05 12:13:27;;;;;;;1.90;0.80;;;7.80;97.00;;;;;;6169771;23;20461;-90
2021/12/05 12:16:07;;;;;;;3.33;1.10;;;7.50;97.20;;;;;;6161523;23;20428;-90
2021/12/05 12:18:38;;;;;;;1.67;1.33;;;7.30;97.90;;;;;;6167716;23;20409;-90
2021/12/05 12:21:19;;;;;;;0.67;0.67;;;7.20;98.90;;;;;;6167629;23;20390;-89
2021/12/05 12:23:50;;;;;;;2.13;1.40;;;7.20;99.40;;;;;;6167918;23;20831;-89
2021/12/05 12:26:16;;;;;;;1.50;1.20;;;7.10;99.90;;;;;;6166213;23;20436;-90
2021/12/05 12:28:42;;;;;;;1.37;0.90;;;7.00;99.90;;;;;;6165493;23;20772;-89
2021/12/05 12:31:13;;;;;;;1.80;0.90;;;7.00;99.90;;;;;;6166185;23;20412;-90
2021/12/05 12:33:52;;;;;;;0.93;0.90;;;6.90;99.90;;;;;;6105034;23;1439873;-89
2021/12/05 12:36:40;;;;;;;2.30;1.00;;;6.80;99.90;;;;;;6171205;23;20183;-90
2021/12/05 12:42:37;;;;;;;0.93;0.90;;;7.30;99.90;;;;;;6196140;23;20397;-89
2021/12/05 12:45:18;;;;;;;0.90;0.90;;;7.80;99.70;;;;;;6193402;23;20857;-89
2021/12/05 12:48:03;;;;;;;1.23;1.13;;;7.80;99.40;;;;;;6168762;23;20504;-89
2021/12/05 12:50:55;;;;;;;0.80;0.80;;;8.00;99.40;;;;;;6143595;23;20808;-89
2021/12/05 12:53:40;;;;;;;1.20;1.10;;;7.70;98.70;;;;;;6163331;23;20393;-89
2021/12/05 12:56:18;;;;;;;2.23;1.03;;;7.50;99.40;;;;;;6167367;23;21106;-89
2021/12/05 12:59:00;;;;;;;1.23;0.90;;;7.40;99.70;;;;;;6169255;23;20558;-89
2021/12/05 13:01:48;;;;;;;4.20;2.10;;;7.60;99.90;;;;;;6173553;23;20689;-89
2021/12/05 13:04:39;;;;;;;1.87;1.00;;;7.60;99.90;;;;;;6172589;23;20394;-88
2021/12/05 13:10:08;;;;;;;1.43;1.33;;;8.30;98.40;;;;;;6171130;23;20399;-90
2021/12/05 13:15:35;;;;;;;1.83;0.90;;;8.30;98.30;;;;;;6199530;23;20764;-88
2021/12/05 13:18:19;;;;;;;2.97;2.20;;;8.00;98.00;;;;;;6173627;23;20840;-88
2021/12/05 13:20:53;;;;;;;3.67;1.00;;;7.80;98.50;;;;;;6150888;23;20419;-88
2021/12/05 13:23:36;;;;;;;3.17;1.13;;;7.80;99.00;;;;;;6172524;23;20403;-88
2021/12/05 13:26:23;;;;;;;1.83;1.03;;;8.30;98.50;;;;;;6173864;23;20738;-88
2021/12/05 13:29:14;;;;;;;2.80;1.30;;;9.10;97.70;;;;;;6172909;23;20896;-88
2021/12/05 13:32:11;;;;;;;1.70;1.00;;;10.00;95.20;;;;;;6173592;23;20414;-88
2021/12/05 13:35:04;;;;;;;3.10;1.40;;;9.40;95.70;;;;;;6172422;23;20418;-89
2021/12/05 13:37:44;;;;;;;1.90;0.90;;;8.50;97.00;;;;;;6174360;23;20407;-88
2021/12/05 13:40:12;;;;;;;1.73;1.03;;;7.80;97.80;;;;;;6172215;23;20422;-89
2021/12/05 13:42:45;;;;;;;1.60;1.50;;;7.40;98.50;;;;;;6172869;23;20414;-87
2021/12/05 13:45:29;;;;;;;2.40;1.70;;;7.40;99.10;;;;;;6172295;23;20398;-88
2021/12/05 13:47:54;;;;;;;1.30;1.20;;;9.40;97.90;;;;;;6171831;23;20447;-87
2021/12/05 13:52:56;;;;;;;1.50;1.37;;;11.50;92.20;;;;;;6199166;23;20190;-87
2021/12/05 13:55:42;;;;;;;1.87;1.77;;;13.10;90.50;;;;;;6169272;23;20261;-88
2021/12/05 13:58:29;;;;;;;1.00;0.90;;;12.80;85.40;;;;;;6172599;23;20395;-88
2021/12/05 14:01:03;;;;;;;1.77;1.17;;;10.20;91.30;;;;;;6171099;23;20728;-87
2021/12/05 14:04:00;;;;;;;1.87;0.77;;;9.50;93.60;;;;;;6166329;23;20402;-88
2021/12/05 14:06:42;;;;;;;1.63;1.00;;;9.00;94.60;;;;;;6167669;23;21521;-87
2021/12/05 14:09:30;;;;;;;1.40;0.90;;;8.10;95.80;;;;;;6167142;23;20442;-88
2021/12/05 14:11:58;;;;;;;1.07;0.97;;;7.70;96.90;;;;;;6166410;23;20395;-87
2021/12/05 14:14:28;;;;;;;3.30;1.63;;;7.60;97.80;;;;;;6165054;23;20418;-87
2021/12/05 14:16:56;;;;;;;2.03;1.47;;;7.50;98.10;;;;;;6168754;23;20480;-87
2021/12/05 14:19:28;;;;;;;2.73;1.70;;;7.40;98.50;;;;;;6168320;23;20414;-87
2021/12/05 14:22:01;;;;;;;2.57;1.77;;;7.30;98.90;;;;;;6166011;23;20409;-88
2021/12/05 14:24:30;;;;;;;3.57;1.87;;;7.10;99.30;;;;;;6165489;23;20407;-87
2021/12/05 14:27:02;;;;;;;7.43;2.70;;;7.00;99.70;;;;;;6170757;23;20443;-88
2021/12/05 14:29:55;;;;;;;3.60;2.33;;;6.90;99.90;;;;;;6166097;23;20411;-88
2021/12/05 14:32:25;;;;;;;4.47;2.40;;;6.70;99.90;;;;;;6161978;23;20395;-87
2021/12/05 14:34:54;;;;;;;2.10;1.83;;;6.50;99.90;;;;;;6166140;23;20406;-87
2021/12/05 14:37:31;;;;;;;3.13;1.50;;;6.40;99.90;;;;;;6193433;23;20406;-87
2021/12/05 14:40:50;;;;;;;1.20;1.10;;;6.30;99.90;;;;;;6167725;23;20414;-90
2021/12/05 14:43:22;;;;;;;2.07;1.50;;;6.10;99.90;;;;;;6167947;23;20399;-89
2021/12/05 14:45:48;;;;;;;4.80;1.60;;;6.10;99.90;;;;;;6168572;23;20596;-89
2021/12/05 14:48:25;;;;;;;1.20;1.00;;;6.10;99.90;;;;;;6169044;23;20453;-90
2021/12/05 14:50:52;;;;;;;4.63;1.00;;;6.00;99.90;;;;;;6195625;23;20153;-90
2021/12/05 14:56:31;;;;;;;3.50;2.27;;;5.90;99.90;;;;;;6194290;23;20741;-92
2021/12/05 14:59:21;;;;;;;2.73;2.10;;;5.90;99.90;;;;;;6167802;23;20457;-92
2021/12/05 15:02:10;;;;;;;3.10;2.80;;;5.90;99.90;;;;;;6168676;23;20505;-92
2021/12/05 15:04:44;;;;;;;2.67;2.47;;;5.80;99.90;;;;;;6163699;23;20466;-92
2021/12/05 15:10:41;;;;;;;2.23;2.00;;;5.80;99.90;;;;;;6194835;23;20399;-90
2021/12/05 15:13:09;;;;;;;3.13;1.93;;;5.90;99.90;;;;;;6193778;23;20397;-89
2021/12/05 15:15:38;;;;;;;2.27;2.00;;;5.70;99.90;;;;;;6194105;23;20405;-88
2021/12/05 15:18:14;;;;;;;;;;;;;;;;;;;;;
2021/12/05 15:21:03;;;;;;;3.13;1.90;;;5.70;99.90;;;;;;6196826;23;20788;-89
2021/12/05 15:23:31;;;;;;;4.53;1.77;;;5.60;99.90;;;;;;6169556;23;20410;-90
2021/12/05 15:25:59;;;;;;;2.27;1.93;;;5.60;99.90;;;;;;6171883;23;20399;-90
2021/12/05 15:28:25;;;;;;;7.83;4.40;;;5.50;99.90;;;;;;6169402;23;20450;-89
2021/12/05 15:30:55;;;;;;;10.23;5.47;;;5.40;99.90;;;;;;6170297;23;20399;-91
2021/12/05 15:33:25;;;;;;;4.67;2.60;;;5.50;99.90;;;;;;6168944;23;20418;-90
2021/12/05 15:36:13;;;;;;;3.60;2.07;;;5.40;99.90;;;;;;6169511;23;20407;-92
2021/12/05 15:39:47;;;;;;;;;;;;;;;;;;;;;
2021/12/05 15:43:04;;;;;;;;;;;;;;;;;;;;;
2021/12/05 15:46:13;;;;;;;8.67;4.40;;;5.40;99.90;;;;;;6195437;23;20391;-91
2021/12/05 15:52:01;;;;;;;;;;;;;;;;;;;;;
2021/12/05 16:01:25;;;;;;;1.70;1.30;;;5.10;99.90;;;;;;6196746;23;20387;-90
2021/12/05 16:03:55;;;;;;;5.20;1.77;;;5.10;99.90;;;;;;6193957;23;20394;-89
2021/12/05 16:06:40;;;;;;;3.40;2.30;;;5.10;99.90;;;;;;6164721;23;20410;-89
2021/12/05 16:09:34;;;;;;;;;;;;;;;;;;;;;
2021/12/05 16:12:51;;;;;;;;;;;;;;;;;;;;;
2021/12/05 16:15:21;;;;;;;2.50;2.30;;;5.20;99.90;;;;;;6177960;23;20440;-90
2021/12/05 16:17:59;;;;;;;2.13;1.90;;;5.20;99.90;;;;;;6169162;23;20418;-90
2021/12/05 16:20:35;;;;;;;6.80;3.17;;;5.10;99.90;;;;;;6165753;23;20406;-87
2021/12/05 16:23:16;;;;;;;3.30;2.20;;;5.00;99.90;;;;;;6167193;23;20394;-91
2021/12/05 16:25:48;;;;;;;5.40;3.33;;;5.00;99.90;;;;;;6169329;23;20403;-92
2021/12/05 16:28:15;;;;;;;4.73;3.47;;;5.00;99.90;;;;;;6166198;23;20453;-88
2021/12/05 16:30:58;;;;;;;9.60;5.03;;;5.00;99.90;;;;;;6171050;23;20400;-93
2021/12/05 16:33:29;;;;;;;12.77;5.50;;;4.90;99.90;;;;;;6167388;23;20432;-94
2021/12/05 16:35:58;;;;;;;5.40;3.30;;;4.80;99.90;;;;;;6168876;23;20911;-93
2021/12/05 16:38:29;;;;;;;7.10;3.10;;;4.80;99.90;;;;;;6167675;23;20513;-94
2021/12/05 16:41:08;;;;;;;6.87;3.20;;;4.80;99.90;;;;;;6172851;23;20416;-95
2021/12/05 16:43:36;;;;;;;12.67;4.73;;;4.70;99.90;;;;;;6171123;23;20406;-95
2021/12/05 16:46:17;;;;;;;5.70;4.17;;;4.70;99.90;;;;;;6167681;23;20393;-95
2021/12/05 16:48:46;;;;;;;4.47;4.00;;;4.80;99.90;;;;;;6172911;23;20450;-96
2021/12/05 16:51:17;;;;;;;10.10;5.27;;;4.70;99.90;;;;;;6167915;23;20431;-93
2021/12/05 16:53:47;;;;;;;6.40;4.70;;;4.70;99.90;;;;;;6197363;23;20402;-92
2021/12/05 16:56:17;;;;;;;6.40;4.57;;;4.70;99.90;;;;;;6165132;23;21614;-92
2021/12/05 16:58:44;;;;;;;5.80;5.30;;;4.70;99.90;;;;;;6201990;23;20387;-95
2021/12/05 17:01:19;;;;;;;14.47;10.33;;;4.70;99.90;;;;;;6172147;23;20481;-94
2021/12/05 17:03:46;;;;;;;20.57;11.90;;;4.70;99.90;;;;;;6179328;23;20406;-93
2021/12/05 17:06:14;;;;;;;14.50;9.00;;;4.80;99.90;;;;;;6177040;23;20389;-95
2021/12/05 17:08:45;;;;;;;11.60;6.70;;;4.80;99.90;;;;;;6173716;23;20446;-92
2021/12/05 17:11:17;;;;;;;5.47;4.60;;;4.80;99.90;;;;;;6201388;23;20394;-94
2021/12/05 17:13:48;;;;;;;7.80;4.30;;;4.90;99.90;;;;;;6176956;23;20401;-96
2021/12/05 17:16:20;;;;;;;3.60;3.30;;;4.80;99.90;;;;;;6154512;23;20899;-94
2021/12/05 17:18:58;;;;;;;5.30;3.87;;;4.70;99.90;;;;;;6171990;23;20446;-96
2021/12/05 17:21:33;;;;;;;5.10;3.93;;;4.60;99.90;;;;;;6171252;23;20406;-94
2021/12/05 17:24:03;;;;;;;8.23;5.47;;;4.60;99.90;;;;;;6199525;23;20390;-93
2021/12/05 17:26:37;;;;;;;6.80;4.17;;;4.60;99.90;;;;;;6168189;23;20473;-93
2021/12/05 17:29:05;;;;;;;4.10;3.30;;;4.70;99.90;;;;;;6167837;23;20991;-93
2021/12/05 17:31:47;;;;;;;5.60;3.60;;;4.60;99.90;;;;;;6172332;23;20465;-95
2021/12/05 17:34:19;;;;;;;4.70;2.60;;;4.50;99.90;;;;;;6177319;23;20410;-95
2021/12/05 17:36:51;;;;;;;3.83;2.77;;;4.30;99.90;;;;;;6173835;23;20401;-96
2021/12/05 17:39:20;;;;;;;5.90;3.20;;;4.20;99.90;;;;;;6173073;23;20402;-94
2021/12/05 17:41:50;;;;;;;4.27;2.63;;;4.30;99.90;;;;;;6176576;23;20391;-95
2021/12/05 17:44:18;;;;;;;2.90;2.70;;;4.40;99.90;;;;;;6180351;23;20471;-96
2021/12/05 17:46:47;;;;;;;2.37;2.17;;;4.30;99.90;;;;;;6175612;23;20413;-95
2021/12/05 17:49:17;;;;;;;1.87;1.67;;;4.30;99.90;;;;;;6176926;23;20816;-95
2021/12/05 17:51:44;;;;;;;2.60;2.37;;;4.30;99.90;;;;;;6187909;23;20401;-95
2021/12/05 17:54:50;;;;;;;4.10;3.33;;;4.30;99.90;;;;;;6187873;23;20399;-96
2021/12/05 17:57:20;;;;;;;12.37;7.70;;;4.40;99.90;;;;;;6212757;23;20409;-96
2021/12/05 18:00:01;;;;;;;6.93;4.73;;;4.40;99.90;;;;;;6185435;23;20393;-95
2021/12/05 18:10:15;;;;;;;4.53;4.03;;;4.20;99.90;;;;;;6211421;23;20813;-92
2021/12/05 18:12:46;;;;;;;7.43;6.23;;;4.20;99.90;;;;;;6194182;23;20747;-92
2021/12/05 18:15:23;;;;;;;11.50;6.53;;;4.20;99.90;;;;;;6195438;23;20471;-93
2021/12/05 18:18:30;;;;;;;7.77;6.53;;;4.10;99.90;;;;;;6168611;23;20464;-93
2021/12/05 18:21:00;;;;;;;9.00;6.70;;;4.20;99.90;;;;;;6118770;23;20846;-93
2021/12/05 18:23:30;;;;;;;3.43;2.83;;;4.20;99.90;;;;;;6171168;23;20403;-93
2021/12/05 18:25:59;;;;;;;3.83;2.10;;;4.00;99.90;;;;;;6169357;23;20903;-91
2021/12/05 18:28:32;;;;;;;2.80;2.00;;;3.90;99.90;;;;;;6169479;23;20511;-92
2021/12/05 18:30:58;;;;;;;2.03;1.93;;;3.80;99.90;;;;;;6168468;23;20489;-92
2021/12/05 18:33:30;;;;;;;1.70;1.53;;;3.70;99.90;;;;;;6171235;23;20403;-90
2021/12/05 18:35:56;;;;;;;1.63;1.53;;;3.80;99.90;;;;;;6168565;23;20401;-91
2021/12/05 18:38:28;;;;;;;2.20;1.70;;;3.80;99.90;;;;;;6195334;23;20387;-92
2021/12/05 18:41:06;;;;;;;2.20;1.90;;;3.70;99.90;;;;;;6170694;23;20557;-94
2021/12/05 18:43:46;;;;;;;5.77;4.50;;;3.80;99.90;;;;;;6175347;23;20402;-89
2021/12/05 18:46:12;;;;;;;8.03;7.00;;;3.90;99.90;;;;;;6174075;23;20406;-89
2021/12/05 18:49:13;;;;;;;7.73;5.80;;;3.90;99.90;;;;;;6168928;23;20523;-92
2021/12/05 18:51:39;;;;;;;6.93;5.70;;;4.00;99.90;;;;;;6154863;23;20402;-91
2021/12/05 18:54:07;;;;;;;16.33;9.63;;;4.10;99.90;;;;;;6193117;23;20638;-90
2021/12/05 18:56:53;;;;;;;11.40;7.90;;;4.20;99.90;;;;;;6169678;23;20426;-90
2021/12/05 18:59:28;;;;;;;9.00;5.90;;;4.20;99.90;;;;;;6149667;23;20610;-89
2021/12/05 19:05:07;;;;;;;13.07;9.20;;;4.10;99.90;;;;;;6199319;23;20461;-94
2021/12/05 19:08:05;;;;;;;12.27;7.40;;;4.10;99.90;;;;;;6175726;23;20455;-91
2021/12/05 19:13:17;;;;;;;5.10;4.60;;;4.10;99.90;;;;;;6197556;23;20420;-91
2021/12/05 19:15:44;;;;;;;3.13;2.57;;;4.00;99.90;;;;;;6194840;23;20376;-91
2021/12/05 19:18:12;;;;;;;1.53;1.37;;;3.90;99.90;;;;;;6190064;23;20390;-91
2021/12/05 19:20:38;;;;;;;1.23;1.13;;;3.70;99.90;;;;;;6167773;23;20400;-91
2021/12/05 19:23:04;;;;;;;1.80;1.70;;;3.60;99.90;;;;;;6166688;23;20463;-91
2021/12/05 19:25:32;;;;;;;2.67;2.33;;;3.50;99.90;;;;;;6194110;23;20380;-91
2021/12/05 19:28:00;;;;;;;6.70;6.00;;;3.50;99.90;;;;;;6167648;23;20255;-92
2021/12/05 19:30:49;;;;;;;3.57;3.27;;;3.50;99.90;;;;;;6193806;23;20387;-91
2021/12/05 19:33:17;;;;;;;4.40;4.00;;;3.50;99.90;;;;;;6164593;23;20402;-91
2021/12/05 19:35:43;;;;;;;4.57;3.70;;;3.50;99.90;;;;;;6168063;23;20463;-90
2021/12/05 19:38:11;;;;;;;3.37;3.07;;;3.60;99.90;;;;;;6192979;23;20378;-91
2021/12/05 19:40:38;;;;;;;2.47;2.27;;;3.60;99.90;;;;;;6166615;23;20870;-93
2021/12/05 19:43:05;;;;;;;2.10;1.90;;;3.60;99.90;;;;;;6194959;23;20746;-91